Terminal Aerodrome Forecast
Issued by NWS Boston, MA

Home | Current Version | Previous Version | Text Only | Print | Product List | Glossary On
Versions: 1 2 3 4 5 6 7 8 9 10 11 12 13 14 15 16 17 18 19 20 21 22 23 24 25 26 27 28 29 30 31 32 33 34 35 36 37 38 39 40 41 42 43 44 45
000
FTUS41 KBOX 291137
TAFBOS
TAF
KBOS 291137Z 2912/3018 32004KT P6SM SKC
     FM292000 14004KT P6SM FEW200
     FM300300 17006KT P6SM BKN100
     FM300600 16008KT P6SM OVC020
     FM300700 16008KT P6SM -SN OVC015
     FM300900 15008KT 2SM -SN OVC010
     FM301400 18006KT 1SM -SN OVC003
     FM301700 26006KT 1SM -SN OVC003=

USA.gov is the U.S. government's official web portal to all federal, state and local government web resources and services.